Time;durP1;ratioP1;P1;durP2;ratioP2;P2;SDS_P1;SDS_P2;PMS_P1;PMS_P2;Temp;Humidity;BMP_temperature;BMP_pressure;BME280_temperature;BME280_humidity;BME280_pressure;Samples;Min_cycle;Max_cycle;Signal;HPM_P1;HPM_P2
2021/09/24 18:44:53;;;;;;;8.13;4.55;;;;;;;10.54;73.34;99120.52;1674503;85;22125;-71
2021/09/24 18:47:20;;;;;;;13.78;7.72;;;;;;;10.51;73.43;99109.75;1683329;84;21522;-71
2021/09/24 18:49:46;;;;;;;10.68;6.50;;;;;;;10.50;73.52;99111.23;1679970;85;22181;-71
2021/09/24 18:52:13;;;;;;;15.23;5.87;;;;;;;10.50;73.59;99113.87;1683033;85;21059;-71
2021/09/24 18:54:39;;;;;;;17.35;8.30;;;;;;;10.49;73.62;99114.85;1676720;85;21012;-71
2021/09/24 18:57:05;;;;;;;25.77;12.13;;;;;;;10.46;73.70;99113.84;1676418;84;21042;-72
2021/09/24 18:59:32;;;;;;;36.95;14.80;;;;;;;10.42;73.75;99111.16;1677768;83;21052;-72
2021/09/24 19:01:58;;;;;;;17.52;7.28;;;;;;;10.37;73.86;99121.35;1676514;85;22201;-72
2021/09/24 19:04:26;;;;;;;7.42;3.52;;;;;;;10.32;73.96;99122.61;1676356;84;21028;-72
2021/09/24 19:06:52;;;;;;;6.75;2.90;;;;;;;10.28;74.11;99122.59;1676580;85;21040;-72
2021/09/24 19:09:19;;;;;;;5.00;2.58;;;;;;;10.25;74.29;99132.63;1672613;84;21031;-73
2021/09/24 19:11:46;;;;;;;5.78;2.67;;;;;;;10.21;74.45;99124.63;1674888;85;21035;-72
2021/09/24 19:14:13;;;;;;;6.42;2.67;;;;;;;10.19;74.60;99127.41;1676639;85;22797;-72
2021/09/24 19:16:40;;;;;;;9.30;4.17;;;;;;;10.17;74.77;99124.10;1676351;85;21062;-72
2021/09/24 19:19:07;;;;;;;8.83;5.22;;;;;;;10.16;74.87;99118.98;1675372;85;21032;-71
2021/09/24 19:21:33;;;;;;;8.88;3.70;;;;;;;10.16;74.98;99130.85;1676546;84;21051;-71
2021/09/24 19:24:00;;;;;;;7.62;3.20;;;;;;;10.16;75.06;99125.09;1676619;85;20988;-73
2021/09/24 19:26:26;;;;;;;8.88;3.27;;;;;;;10.17;75.11;99128.06;1676551;85;22239;-72
2021/09/24 19:28:52;;;;;;;5.08;2.62;;;;;;;10.18;75.16;99130.20;1676595;85;21028;-72
2021/09/24 19:31:20;;;;;;;5.78;2.90;;;;;;;10.18;75.19;99134.16;1676815;84;21511;-73
2021/09/24 19:33:47;;;;;;;6.55;3.47;;;;;;;10.17;75.21;99134.66;1674748;85;21520;-74
2021/09/24 19:36:13;;;;;;;6.85;3.60;;;;;;;10.16;75.22;99127.72;1670956;85;21100;-75
2021/09/24 19:38:40;;;;;;;10.10;3.98;;;;;;;10.17;75.22;99124.10;1651500;85;22204;-73
2021/09/24 19:41:07;;;;;;;8.23;3.72;;;;;;;10.19;75.28;99130.55;1672514;85;21040;-71
2021/09/24 19:43:33;;;;;;;9.60;4.50;;;;;;;10.20;75.20;99131.70;1679045;85;21013;-72
2021/09/24 19:45:59;;;;;;;7.58;4.30;;;;;;;10.19;75.18;99132.69;1685324;84;21491;-69
2021/09/24 19:48:26;;;;;;;10.53;4.80;;;;;;;10.17;75.15;99132.02;1685488;84;21423;-70
2021/09/24 19:50:52;;;;;;;8.38;4.10;;;;;;;10.15;75.17;99125.23;1681730;84;22198;-70
2021/09/24 19:53:19;;;;;;;6.80;4.30;;;;;;;10.12;75.17;99122.38;1680626;84;21008;-69
2021/09/24 19:55:46;;;;;;;8.13;3.75;;;;;;;10.10;75.21;99122.20;1685321;83;21451;-70
2021/09/24 19:58:12;;;;;;;5.83;3.00;;;;;;;10.08;75.24;99122.36;1684999;85;21502;-69
2021/09/24 20:00:39;;;;;;;11.15;3.55;;;;;;;10.07;75.25;99128.62;1685142;85;21032;-70
2021/09/24 20:03:06;;;;;;;9.58;3.27;;;;;;;10.03;75.24;99124.59;1683605;85;22228;-67
2021/09/24 20:05:32;;;;;;;11.00;3.67;;;;;;;10.00;75.29;99130.18;1683359;84;21017;-67
2021/09/24 20:07:58;;;;;;;12.55;4.08;;;;;;;9.96;75.32;99123.55;1679159;84;21025;-67
2021/09/24 20:10:25;;;;;;;9.73;3.55;;;;;;;9.92;75.41;99131.41;1679184;84;21719;-67
2021/09/24 20:12:51;;;;;;;8.45;3.33;;;;;;;9.88;75.43;99136.16;1679152;85;21037;-66
2021/09/24 20:15:18;;;;;;;8.98;3.47;;;;;;;9.85;75.48;99133.00;1649728;85;22176;-67
2021/09/24 20:17:45;;;;;;;7.05;3.30;;;;;;;9.82;75.54;99139.37;1656732;86;21004;-66
2021/09/24 20:20:12;;;;;;;8.28;3.77;;;;;;;9.80;75.59;99137.38;1657674;86;21447;-67
2021/09/24 20:22:39;;;;;;;9.38;3.77;;;;;;;9.77;75.58;99139.48;1657639;86;21065;-67
2021/09/24 20:25:06;;;;;;;9.80;3.58;;;;;;;9.74;75.61;99138.78;1669259;85;21087;-67
2021/09/24 20:27:37;;;;;;;9.03;3.25;;;;;;;9.73;75.61;99137.13;1685176;84;22196;-67
2021/09/24 20:30:04;;;;;;;6.20;3.22;;;;;;;9.71;75.61;99135.13;1685717;84;21060;-67
2021/09/24 20:32:30;;;;;;;5.80;3.10;;;;;;;9.69;75.60;99136.26;1685034;84;20989;-67
2021/09/24 20:34:57;;;;;;;7.65;3.10;;;;;;;9.71;75.56;99131.17;1685101;85;21083;-67
2021/09/24 20:37:23;;;;;;;5.90;2.70;;;;;;;9.74;75.48;99132.67;1685263;85;21009;-68
2021/09/24 20:39:50;;;;;;;6.20;2.00;;;;;;;9.79;75.33;99134.89;1685248;84;22186;-67
2021/09/24 20:42:16;;;;;;;5.42;1.87;;;;;;;9.83;75.14;99134.44;1685112;84;20952;-67
2021/09/24 20:44:44;;;;;;;5.62;2.05;;;;;;;9.92;74.96;99127.45;1685366;83;20960;-67
2021/09/24 20:47:13;;;;;;;5.50;1.77;;;;;;;9.98;74.70;99129.02;1684982;85;21656;-67
2021/09/24 20:49:39;;;;;;;3.85;2.00;;;;;;;10.04;74.53;99130.24;1683339;84;21052;-67
2021/09/24 20:52:06;;;;;;;9.90;1.87;;;;;;;10.10;74.29;99130.12;1685165;84;21806;-67
2021/09/24 20:54:33;;;;;;;7.50;2.15;;;;;;;10.14;74.09;99131.50;1685107;83;21001;-67
2021/09/24 20:57:01;;;;;;;8.05;2.30;;;;;;;10.17;73.82;99121.95;1685426;83;21519;-68
2021/09/24 20:59:28;;;;;;;5.35;1.85;;;;;;;10.19;73.71;99117.34;1713606;83;21048;-67
2021/09/24 21:01:55;;;;;;;7.45;1.98;;;;;;;10.20;73.58;99115.88;1713763;83;20945;-67
2021/09/24 21:04:21;;;;;;;7.58;2.17;;;;;;;10.21;73.55;99126.77;1688794;82;21719;-67
2021/09/24 21:06:48;;;;;;;6.20;1.92;;;;;;;10.21;73.54;99124.13;1684951;83;20944;-67
2021/09/24 21:09:14;;;;;;;8.68;2.02;;;;;;;10.21;73.59;99121.48;1685399;84;20964;-68
2021/09/24 21:11:41;;;;;;;4.95;1.87;;;;;;;10.21;73.66;99121.98;1685039;84;21030;-67
2021/09/24 21:14:08;;;;;;;7.15;2.30;;;;;;;10.21;73.69;99127.26;1685371;83;21558;-67
2021/09/24 21:16:34;;;;;;;6.25;1.75;;;;;;;10.22;73.73;99122.34;1685125;83;22491;-67
2021/09/24 21:19:01;;;;;;;7.42;2.20;;;;;;;10.21;73.78;99122.81;1683913;84;20996;-69
2021/09/24 21:21:27;;;;;;;6.37;2.47;;;;;;;10.20;73.87;99127.75;1685389;84;21044;-68
2021/09/24 21:23:54;;;;;;;8.55;2.37;;;;;;;10.21;73.88;99124.13;1685289;84;20998;-67
2021/09/24 21:26:21;;;;;;;8.20;2.20;;;;;;;10.21;73.91;99121.98;1685050;85;21000;-68
2021/09/24 21:28:48;;;;;;;5.78;2.65;;;;;;;10.21;73.91;99126.77;1684990;84;22250;-67
2021/09/24 21:31:14;;;;;;;5.85;2.40;;;;;;;10.20;73.91;99127.75;1685274;83;20956;-68
2021/09/24 21:33:41;;;;;;;5.03;2.17;;;;;;;10.20;73.92;99133.52;1685105;85;20995;-68
2021/09/24 21:36:08;;;;;;;7.83;2.10;;;;;;;10.19;73.91;99130.05;1685301;85;21094;-67
2021/09/24 21:38:35;;;;;;;4.83;2.27;;;;;;;10.19;73.91;99129.22;1685381;84;20957;-67
2021/09/24 21:41:03;;;;;;;4.83;2.08;;;;;;;10.18;73.90;99138.13;1684988;84;21841;-67
2021/09/24 21:43:31;;;;;;;6.22;2.10;;;;;;;10.16;73.94;99142.73;1685077;85;21008;-68
2021/09/24 21:45:57;;;;;;;6.55;2.35;;;;;;;10.15;73.95;99131.83;1683694;84;20959;-67
2021/09/24 21:48:24;;;;;;;4.70;1.85;;;;;;;10.14;73.98;99138.09;1684787;85;21030;-67
2021/09/24 21:50:50;;;;;;;4.87;1.85;;;;;;;10.13;74.01;99145.15;1679873;84;21013;-67
2021/09/24 21:53:16;;;;;;;6.72;2.10;;;;;;;10.12;74.04;99143.49;1679619;84;21782;-67
2021/09/24 21:55:44;;;;;;;6.45;1.90;;;;;;;10.09;74.09;99147.76;1678918;84;20985;-67
2021/09/24 21:58:11;;;;;;;3.47;1.80;;;;;;;10.04;74.17;99148.22;1698378;83;21000;-67
2021/09/24 22:00:37;;;;;;;7.12;2.02;;;;;;;10.01;74.22;99150.30;1713721;83;21598;-67
2021/09/24 22:03:03;;;;;;;9.90;2.42;;;;;;;9.99;74.28;99161.50;1700743;83;21408;-67
2021/09/24 22:05:30;;;;;;;6.28;2.20;;;;;;;9.97;74.33;99163.45;1685219;84;21870;-67
2021/09/24 22:07:56;;;;;;;6.67;2.10;;;;;;;9.94;74.39;99161.95;1685248;84;20952;-67
2021/09/24 22:10:22;;;;;;;5.22;2.08;;;;;;;9.94;74.44;99174.28;1685366;84;20936;-67
2021/09/24 22:12:49;;;;;;;5.75;2.12;;;;;;;9.90;74.50;99170.29;1684966;84;21026;-67
2021/09/24 22:15:19;;;;;;;5.53;2.05;;;;;;;9.86;74.55;99175.53;1684687;85;21417;-67
2021/09/24 22:17:45;;;;;;;5.75;2.02;;;;;;;9.84;74.62;99173.02;1685012;84;21858;-67
2021/09/24 22:20:12;;;;;;;3.92;1.70;;;;;;;9.82;74.70;99172.34;1683788;84;20984;-67
2021/09/24 22:22:40;;;;;;;2.87;1.55;;;;;;;9.80;74.75;99174.30;1685025;84;21000;-67
2021/09/24 22:25:08;;;;;;;5.65;2.27;;;;;;;9.78;74.78;99178.06;1685384;84;21416;-67
2021/09/24 22:27:35;;;;;;;7.95;2.37;;;;;;;9.74;74.88;99178.33;1685049;85;20972;-67
2021/09/24 22:30:06;;;;;;;5.00;1.82;;;;;;;9.70;74.97;99176.98;1685289;85;21789;-67
2021/09/24 22:32:32;;;;;;;8.35;2.40;;;;;;;9.69;75.03;99185.03;1658724;83;21058;-67
2021/09/24 22:34:59;;;;;;;8.63;2.27;;;;;;;9.67;75.09;99179.08;1657630;85;21482;-67
2021/09/24 22:37:25;;;;;;;6.40;2.65;;;;;;;9.67;75.14;99192.27;1657468;86;21416;-67
2021/09/24 22:39:52;;;;;;;5.70;2.50;;;;;;;9.64;75.12;99181.50;1657730;86;21301;-67
2021/09/24 22:42:18;;;;;;;6.37;2.40;;;;;;;9.61;75.17;99189.70;1657253;85;22228;-67
2021/09/24 22:44:44;;;;;;;7.17;2.58;;;;;;;9.58;75.25;99191.33;1674504;83;21031;-67
2021/09/24 22:47:11;;;;;;;6.95;2.55;;;;;;;9.55;75.28;99202.13;1684997;84;20980;-67
2021/09/24 22:49:37;;;;;;;5.33;1.98;;;;;;;9.56;75.29;99200.36;1685457;84;21300;-67
2021/09/24 22:52:05;;;;;;;7.42;1.80;;;;;;;9.53;75.32;99201.94;1685041;84;20998;-67
2021/09/24 22:54:32;;;;;;;5.55;1.87;;;;;;;9.51;75.39;99201.27;1685032;84;21768;-67
2021/09/24 22:56:58;;;;;;;6.50;1.70;;;;;;;9.47;75.43;99204.68;1696703;83;21053;-67
2021/09/24 22:59:25;;;;;;;3.50;1.55;;;;;;;9.49;75.52;99203.22;1713730;83;20937;-67
2021/09/24 23:01:52;;;;;;;4.47;1.60;;;;;;;9.48;75.60;99207.66;1713835;83;21047;-66
2021/09/24 23:04:19;;;;;;;5.17;1.70;;;;;;;9.49;75.63;99206.68;1709838;83;21063;-66
2021/09/24 23:06:45;;;;;;;6.58;1.60;;;;;;;9.49;75.68;99205.36;1683913;83;21813;-67
2021/09/24 23:09:12;;;;;;;8.20;1.55;;;;;;;9.50;75.77;99212.78;1683925;85;21001;-67
2021/09/24 23:11:38;;;;;;;4.12;1.65;;;;;;;9.52;75.75;99213.46;1683378;84;21035;-67
2021/09/24 23:14:05;;;;;;;6.10;1.40;;;;;;;9.53;75.77;99218.59;1685495;84;21579;-67
2021/09/24 23:16:32;;;;;;;4.40;1.70;;;;;;;9.54;75.77;99220.73;1685181;85;21008;-66
2021/09/24 23:18:59;;;;;;;2.50;1.30;;;;;;;9.54;75.82;99221.56;1685177;85;21900;-66
2021/09/24 23:21:26;;;;;;;4.05;1.65;;;;;;;9.56;75.83;99226.23;1685552;84;20996;-67
2021/09/24 23:23:52;;;;;;;6.12;1.62;;;;;;;9.57;75.84;99231.02;1686222;84;20921;-68
2021/09/24 23:26:19;;;;;;;5.08;1.37;;;;;;;9.59;75.85;99230.38;1685917;85;21817;-67
2021/09/24 23:28:45;;;;;;;2.60;1.50;;;;;;;9.61;75.84;99231.06;1686188;84;20968;-66
2021/09/24 23:31:12;;;;;;;6.00;1.50;;;;;;;9.62;75.83;99236.18;1685374;84;22198;-67
2021/09/24 23:33:38;;;;;;;4.15;1.27;;;;;;;9.66;75.80;99236.75;1685581;84;21023;-67
2021/09/24 23:36:04;;;;;;;4.60;1.17;;;;;;;9.67;75.77;99235.28;1685488;84;21013;-66
2021/09/24 23:38:31;;;;;;;5.87;1.17;;;;;;;9.68;75.71;99229.03;1685182;84;21015;-67
2021/09/24 23:40:57;;;;;;;4.05;1.30;;;;;;;9.69;75.68;99232.00;1682476;84;21049;-67
2021/09/24 23:43:23;;;;;;;4.97;1.20;;;;;;;9.70;75.65;99231.03;1685552;84;22169;-67
2021/09/24 23:45:49;;;;;;;2.10;1.20;;;;;;;9.71;75.64;99227.41;1690167;84;21007;-66
2021/09/24 23:48:16;;;;;;;4.40;1.40;;;;;;;9.72;75.63;99231.70;1686386;84;20948;-67
2021/09/24 23:50:42;;;;;;;2.77;1.17;;;;;;;9.74;75.59;99236.83;1686239;85;21134;-66
2021/09/24 23:53:09;;;;;;;3.77;1.00;;;;;;;9.76;75.57;99238.86;1686168;84;21060;-67
2021/09/24 23:55:35;;;;;;;2.62;1.00;;;;;;;9.77;75.49;99230.46;1686144;83;22825;-67
2021/09/24 23:58:01;;;;;;;4.05;0.98;;;;;;;9.80;75.43;99231.48;1684588;85;21005;-66
